sensor_id;sensor_type;location;lat;lon;timestamp;pressure;altitude;pressure_sealevel;temperature
21210;BMP180;10762;42.206;25.326;2024-02-14T00:00:08;99035.00;;;13.70
21210;BMP180;10762;42.206;25.326;2024-02-14T00:02:41;99032.00;;;13.70
21210;BMP180;10762;42.206;25.326;2024-02-14T00:05:07;99035.00;;;13.70
21210;BMP180;10762;42.206;25.326;2024-02-14T00:07:33;99039.00;;;13.70
21210;BMP180;10762;42.206;25.326;2024-02-14T00:09:59;99047.00;;;13.70
21210;BMP180;10762;42.206;25.326;2024-02-14T00:12:25;99030.00;;;13.70
21210;BMP180;10762;42.206;25.326;2024-02-14T00:14:51;99032.00;;;13.70
21210;BMP180;10762;42.206;25.326;2024-02-14T00:17:17;99034.00;;;13.70
21210;BMP180;10762;42.206;25.326;2024-02-14T00:19:43;99039.00;;;13.70
21210;BMP180;10762;42.206;25.326;2024-02-14T00:22:09;99049.00;;;13.70
21210;BMP180;10762;42.206;25.326;2024-02-14T00:24:35;99050.00;;;13.70
21210;BMP180;10762;42.206;25.326;2024-02-14T00:27:02;99050.00;;;13.70
21210;BMP180;10762;42.206;25.326;2024-02-14T00:29:29;99047.00;;;13.70
21210;BMP180;10762;42.206;25.326;2024-02-14T00:31:55;99052.00;;;13.70
21210;BMP180;10762;42.206;25.326;2024-02-14T00:34:21;99056.00;;;13.70
21210;BMP180;10762;42.206;25.326;2024-02-14T00:36:47;99049.00;;;13.70
21210;BMP180;10762;42.206;25.326;2024-02-14T00:39:13;99053.00;;;13.70
21210;BMP180;10762;42.206;25.326;2024-02-14T00:41:39;99044.00;;;13.70
21210;BMP180;10762;42.206;25.326;2024-02-14T00:44:05;99058.00;;;13.70
21210;BMP180;10762;42.206;25.326;2024-02-14T00:46:31;99059.00;;;13.70
21210;BMP180;10762;42.206;25.326;2024-02-14T00:48:57;99054.00;;;13.70
21210;BMP180;10762;42.206;25.326;2024-02-14T00:51:23;99050.00;;;13.70
21210;BMP180;10762;42.206;25.326;2024-02-14T00:53:49;99053.00;;;13.80
21210;BMP180;10762;42.206;25.326;2024-02-14T00:56:15;99056.00;;;13.80
21210;BMP180;10762;42.206;25.326;2024-02-14T00:58:41;99055.00;;;13.70
21210;BMP180;10762;42.206;25.326;2024-02-14T01:01:07;99062.00;;;13.80
21210;BMP180;10762;42.206;25.326;2024-02-14T01:03:33;99057.00;;;13.70
21210;BMP180;10762;42.206;25.326;2024-02-14T01:05:59;99058.00;;;13.70
21210;BMP180;10762;42.206;25.326;2024-02-14T01:08:25;99071.00;;;13.70
21210;BMP180;10762;42.206;25.326;2024-02-14T01:10:51;99064.00;;;13.70
21210;BMP180;10762;42.206;25.326;2024-02-14T01:13:18;99072.00;;;13.70
21210;BMP180;10762;42.206;25.326;2024-02-14T01:15:44;99067.00;;;13.70
21210;BMP180;10762;42.206;25.326;2024-02-14T01:18:10;99067.00;;;13.70
21210;BMP180;10762;42.206;25.326;2024-02-14T01:20:36;99077.00;;;13.70
21210;BMP180;10762;42.206;25.326;2024-02-14T01:23:03;99076.00;;;13.70
21210;BMP180;10762;42.206;25.326;2024-02-14T01:25:29;99077.00;;;13.60
21210;BMP180;10762;42.206;25.326;2024-02-14T01:27:55;99074.00;;;13.60
21210;BMP180;10762;42.206;25.326;2024-02-14T01:30:21;99077.00;;;13.60
21210;BMP180;10762;42.206;25.326;2024-02-14T01:32:47;99076.00;;;13.60
21210;BMP180;10762;42.206;25.326;2024-02-14T01:35:13;99079.00;;;13.60
21210;BMP180;10762;42.206;25.326;2024-02-14T01:37:39;99080.00;;;13.50
21210;BMP180;10762;42.206;25.326;2024-02-14T01:40:06;99078.00;;;13.50
21210;BMP180;10762;42.206;25.326;2024-02-14T01:42:35;99081.00;;;13.50
21210;BMP180;10762;42.206;25.326;2024-02-14T01:45:01;99081.00;;;13.50
21210;BMP180;10762;42.206;25.326;2024-02-14T01:47:30;99078.00;;;13.50
21210;BMP180;10762;42.206;25.326;2024-02-14T01:49:58;99080.00;;;13.50
21210;BMP180;10762;42.206;25.326;2024-02-14T01:52:24;99086.00;;;13.40
21210;BMP180;10762;42.206;25.326;2024-02-14T01:54:50;99084.00;;;13.40
21210;BMP180;10762;42.206;25.326;2024-02-14T01:57:17;99087.00;;;13.40
21210;BMP180;10762;42.206;25.326;2024-02-14T01:59:43;99082.00;;;13.40
21210;BMP180;10762;42.206;25.326;2024-02-14T02:02:10;99082.00;;;13.40
21210;BMP180;10762;42.206;25.326;2024-02-14T02:04:37;99089.00;;;13.40
21210;BMP180;10762;42.206;25.326;2024-02-14T02:07:03;99087.00;;;13.40
21210;BMP180;10762;42.206;25.326;2024-02-14T02:09:29;99086.00;;;13.40
21210;BMP180;10762;42.206;25.326;2024-02-14T02:11:57;99089.00;;;13.40
21210;BMP180;10762;42.206;25.326;2024-02-14T02:14:23;99091.00;;;13.30
21210;BMP180;10762;42.206;25.326;2024-02-14T02:16:49;99082.00;;;13.30
21210;BMP180;10762;42.206;25.326;2024-02-14T02:19:15;99090.00;;;13.30
21210;BMP180;10762;42.206;25.326;2024-02-14T02:21:41;99092.00;;;13.40
21210;BMP180;10762;42.206;25.326;2024-02-14T02:24:08;99096.00;;;13.40
21210;BMP180;10762;42.206;25.326;2024-02-14T02:26:34;99100.00;;;13.40
21210;BMP180;10762;42.206;25.326;2024-02-14T02:29:00;99097.00;;;13.40
21210;BMP180;10762;42.206;25.326;2024-02-14T02:31:26;99097.00;;;13.40
21210;BMP180;10762;42.206;25.326;2024-02-14T02:33:52;99097.00;;;13.40
21210;BMP180;10762;42.206;25.326;2024-02-14T02:36:18;99091.00;;;13.40
21210;BMP180;10762;42.206;25.326;2024-02-14T02:38:44;99101.00;;;13.40
21210;BMP180;10762;42.206;25.326;2024-02-14T02:41:10;99106.00;;;13.40
21210;BMP180;10762;42.206;25.326;2024-02-14T02:43:37;99106.00;;;13.40
21210;BMP180;10762;42.206;25.326;2024-02-14T02:46:03;99108.00;;;13.40
21210;BMP180;10762;42.206;25.326;2024-02-14T02:48:29;99106.00;;;13.40
21210;BMP180;10762;42.206;25.326;2024-02-14T02:50:57;99113.00;;;13.40
21210;BMP180;10762;42.206;25.326;2024-02-14T02:53:24;99108.00;;;13.40
21210;BMP180;10762;42.206;25.326;2024-02-14T02:55:50;99123.00;;;13.40
21210;BMP180;10762;42.206;25.326;2024-02-14T02:58:17;99117.00;;;13.40
21210;BMP180;10762;42.206;25.326;2024-02-14T03:00:43;99122.00;;;13.40
21210;BMP180;10762;42.206;25.326;2024-02-14T03:03:09;99117.00;;;13.40
21210;BMP180;10762;42.206;25.326;2024-02-14T03:05:36;99119.00;;;13.40
21210;BMP180;10762;42.206;25.326;2024-02-14T03:08:04;99132.00;;;13.40
21210;BMP180;10762;42.206;25.326;2024-02-14T03:10:30;99133.00;;;13.30
21210;BMP180;10762;42.206;25.326;2024-02-14T03:12:56;99134.00;;;13.30
21210;BMP180;10762;42.206;25.326;2024-02-14T03:15:22;99132.00;;;13.30
21210;BMP180;10762;42.206;25.326;2024-02-14T03:17:51;99136.00;;;13.30
21210;BMP180;10762;42.206;25.326;2024-02-14T03:20:17;99136.00;;;13.30
21210;BMP180;10762;42.206;25.326;2024-02-14T03:22:45;99142.00;;;13.30
21210;BMP180;10762;42.206;25.326;2024-02-14T03:25:15;99140.00;;;13.30
21210;BMP180;10762;42.206;25.326;2024-02-14T03:27:42;99143.00;;;13.20
21210;BMP180;10762;42.206;25.326;2024-02-14T03:30:11;99145.00;;;13.30
21210;BMP180;10762;42.206;25.326;2024-02-14T03:32:38;99150.00;;;13.20
21210;BMP180;10762;42.206;25.326;2024-02-14T03:35:04;99153.00;;;13.20
21210;BMP180;10762;42.206;25.326;2024-02-14T03:37:31;99160.00;;;13.20
21210;BMP180;10762;42.206;25.326;2024-02-14T03:39:58;99158.00;;;13.20
21210;BMP180;10762;42.206;25.326;2024-02-14T03:42:24;99158.00;;;13.20
21210;BMP180;10762;42.206;25.326;2024-02-14T03:44:52;99164.00;;;13.20
21210;BMP180;10762;42.206;25.326;2024-02-14T03:47:18;99163.00;;;13.20
21210;BMP180;10762;42.206;25.326;2024-02-14T03:49:44;99165.00;;;13.20
21210;BMP180;10762;42.206;25.326;2024-02-14T03:52:10;99169.00;;;13.20
21210;BMP180;10762;42.206;25.326;2024-02-14T03:54:37;99170.00;;;13.20
21210;BMP180;10762;42.206;25.326;2024-02-14T03:57:03;99171.00;;;13.20
21210;BMP180;10762;42.206;25.326;2024-02-14T03:59:36;99170.00;;;13.20
21210;BMP180;10762;42.206;25.326;2024-02-14T04:02:04;99177.00;;;13.20
21210;BMP180;10762;42.206;25.326;2024-02-14T04:04:32;99180.00;;;13.20
21210;BMP180;10762;42.206;25.326;2024-02-14T04:06:59;99181.00;;;13.20
21210;BMP180;10762;42.206;25.326;2024-02-14T04:09:26;99184.00;;;13.20
21210;BMP180;10762;42.206;25.326;2024-02-14T04:11:52;99172.00;;;13.20
21210;BMP180;10762;42.206;25.326;2024-02-14T04:14:18;99185.00;;;13.20
21210;BMP180;10762;42.206;25.326;2024-02-14T04:16:44;99182.00;;;13.20
21210;BMP180;10762;42.206;25.326;2024-02-14T04:19:11;99182.00;;;13.10
21210;BMP180;10762;42.206;25.326;2024-02-14T04:21:38;99191.00;;;13.10
21210;BMP180;10762;42.206;25.326;2024-02-14T04:24:04;99197.00;;;13.10
21210;BMP180;10762;42.206;25.326;2024-02-14T04:26:30;99202.00;;;13.10
21210;BMP180;10762;42.206;25.326;2024-02-14T04:28:56;99202.00;;;13.10
21210;BMP180;10762;42.206;25.326;2024-02-14T04:31:23;99200.00;;;13.10
21210;BMP180;10762;42.206;25.326;2024-02-14T04:33:49;99205.00;;;13.10
21210;BMP180;10762;42.206;25.326;2024-02-14T04:36:18;99208.00;;;13.10
21210;BMP180;10762;42.206;25.326;2024-02-14T04:38:46;99204.00;;;13.10
21210;BMP180;10762;42.206;25.326;2024-02-14T04:41:12;99199.00;;;13.10
21210;BMP180;10762;42.206;25.326;2024-02-14T04:43:38;99209.00;;;13.10
21210;BMP180;10762;42.206;25.326;2024-02-14T04:46:04;99212.00;;;13.10
21210;BMP180;10762;42.206;25.326;2024-02-14T04:48:33;99204.00;;;13.10
21210;BMP180;10762;42.206;25.326;2024-02-14T04:50:59;99207.00;;;13.00
21210;BMP180;10762;42.206;25.326;2024-02-14T04:53:25;99210.00;;;13.00
21210;BMP180;10762;42.206;25.326;2024-02-14T04:55:51;99214.00;;;13.00
21210;BMP180;10762;42.206;25.326;2024-02-14T04:58:17;99213.00;;;13.00
21210;BMP180;10762;42.206;25.326;2024-02-14T05:00:43;99203.00;;;13.00
21210;BMP180;10762;42.206;25.326;2024-02-14T05:03:09;99210.00;;;13.00
21210;BMP180;10762;42.206;25.326;2024-02-14T05:05:36;99216.00;;;13.00
21210;BMP180;10762;42.206;25.326;2024-02-14T05:08:02;99219.00;;;13.00
21210;BMP180;10762;42.206;25.326;2024-02-14T05:10:28;99229.00;;;13.00
21210;BMP180;10762;42.206;25.326;2024-02-14T05:12:54;99230.00;;;13.00
21210;BMP180;10762;42.206;25.326;2024-02-14T05:15:20;99239.00;;;13.00
21210;BMP180;10762;42.206;25.326;2024-02-14T05:17:46;99240.00;;;13.00
21210;BMP180;10762;42.206;25.326;2024-02-14T05:20:13;99248.00;;;12.90
21210;BMP180;10762;42.206;25.326;2024-02-14T05:22:39;99248.00;;;12.90
21210;BMP180;10762;42.206;25.326;2024-02-14T05:25:05;99260.00;;;12.90
21210;BMP180;10762;42.206;25.326;2024-02-14T05:27:33;99255.00;;;12.90
21210;BMP180;10762;42.206;25.326;2024-02-14T05:29:59;99264.00;;;12.90
21210;BMP180;10762;42.206;25.326;2024-02-14T05:32:25;99266.00;;;12.90
21210;BMP180;10762;42.206;25.326;2024-02-14T05:34:51;99266.00;;;12.90
21210;BMP180;10762;42.206;25.326;2024-02-14T05:37:17;99270.00;;;12.90
21210;BMP180;10762;42.206;25.326;2024-02-14T05:39:43;99268.00;;;12.90
21210;BMP180;10762;42.206;25.326;2024-02-14T05:42:09;99273.00;;;12.80
21210;BMP180;10762;42.206;25.326;2024-02-14T05:44:35;99275.00;;;12.80
21210;BMP180;10762;42.206;25.326;2024-02-14T05:47:01;99288.00;;;12.80
21210;BMP180;10762;42.206;25.326;2024-02-14T05:49:27;99285.00;;;12.80
21210;BMP180;10762;42.206;25.326;2024-02-14T05:51:53;99287.00;;;12.90
21210;BMP180;10762;42.206;25.326;2024-02-14T05:54:20;99297.00;;;12.90
21210;BMP180;10762;42.206;25.326;2024-02-14T05:56:46;99290.00;;;12.90
21210;BMP180;10762;42.206;25.326;2024-02-14T05:59:13;99299.00;;;12.90
21210;BMP180;10762;42.206;25.326;2024-02-14T06:01:39;99296.00;;;12.90
21210;BMP180;10762;42.206;25.326;2024-02-14T06:04:05;99306.00;;;13.00
21210;BMP180;10762;42.206;25.326;2024-02-14T06:06:31;99300.00;;;13.00
21210;BMP180;10762;42.206;25.326;2024-02-14T06:08:57;99299.00;;;13.00
21210;BMP180;10762;42.206;25.326;2024-02-14T06:11:23;99308.00;;;13.10
21210;BMP180;10762;42.206;25.326;2024-02-14T06:13:49;99312.00;;;13.10
21210;BMP180;10762;42.206;25.326;2024-02-14T06:16:15;99318.00;;;13.10
21210;BMP180;10762;42.206;25.326;2024-02-14T06:18:42;99312.00;;;13.20
21210;BMP180;10762;42.206;25.326;2024-02-14T06:21:08;99324.00;;;13.20
21210;BMP180;10762;42.206;25.326;2024-02-14T06:23:34;99322.00;;;13.30
21210;BMP180;10762;42.206;25.326;2024-02-14T06:26:00;99333.00;;;13.30
21210;BMP180;10762;42.206;25.326;2024-02-14T06:28:26;99340.00;;;13.30
21210;BMP180;10762;42.206;25.326;2024-02-14T06:30:53;99342.00;;;13.30
21210;BMP180;10762;42.206;25.326;2024-02-14T06:33:20;99342.00;;;13.30
21210;BMP180;10762;42.206;25.326;2024-02-14T06:35:46;99346.00;;;13.30
21210;BMP180;10762;42.206;25.326;2024-02-14T06:38:12;99351.00;;;13.30
21210;BMP180;10762;42.206;25.326;2024-02-14T06:40:38;99355.00;;;13.40
21210;BMP180;10762;42.206;25.326;2024-02-14T06:43:04;99349.00;;;13.40
21210;BMP180;10762;42.206;25.326;2024-02-14T06:45:32;99350.00;;;13.40
21210;BMP180;10762;42.206;25.326;2024-02-14T06:47:58;99356.00;;;13.40
21210;BMP180;10762;42.206;25.326;2024-02-14T06:50:24;99353.00;;;13.50
21210;BMP180;10762;42.206;25.326;2024-02-14T06:52:54;99349.00;;;13.50
21210;BMP180;10762;42.206;25.326;2024-02-14T06:55:25;99359.00;;;13.60
21210;BMP180;10762;42.206;25.326;2024-02-14T06:57:52;99359.00;;;13.60
21210;BMP180;10762;42.206;25.326;2024-02-14T07:00:18;99364.00;;;13.60
21210;BMP180;10762;42.206;25.326;2024-02-14T07:02:44;99363.00;;;13.60
21210;BMP180;10762;42.206;25.326;2024-02-14T07:05:13;99374.00;;;13.60
21210;BMP180;10762;42.206;25.326;2024-02-14T07:07:41;99376.00;;;13.60
21210;BMP180;10762;42.206;25.326;2024-02-14T07:10:07;99379.00;;;13.60
21210;BMP180;10762;42.206;25.326;2024-02-14T07:12:33;99387.00;;;13.60
21210;BMP180;10762;42.206;25.326;2024-02-14T07:15:02;99394.00;;;13.60
21210;BMP180;10762;42.206;25.326;2024-02-14T07:17:30;99401.00;;;13.60
21210;BMP180;10762;42.206;25.326;2024-02-14T07:19:56;99406.00;;;13.60
21210;BMP180;10762;42.206;25.326;2024-02-14T07:22:22;99402.00;;;13.70
21210;BMP180;10762;42.206;25.326;2024-02-14T07:24:48;99406.00;;;13.60
21210;BMP180;10762;42.206;25.326;2024-02-14T07:27:14;99408.00;;;13.70
21210;BMP180;10762;42.206;25.326;2024-02-14T07:29:41;99411.00;;;13.70
21210;BMP180;10762;42.206;25.326;2024-02-14T07:32:07;99420.00;;;13.70
21210;BMP180;10762;42.206;25.326;2024-02-14T07:34:33;99419.00;;;13.70
21210;BMP180;10762;42.206;25.326;2024-02-14T07:36:59;99418.00;;;13.80
21210;BMP180;10762;42.206;25.326;2024-02-14T07:39:25;99417.00;;;13.80
21210;BMP180;10762;42.206;25.326;2024-02-14T07:41:51;99417.00;;;13.80
21210;BMP180;10762;42.206;25.326;2024-02-14T07:44:17;99426.00;;;13.80
21210;BMP180;10762;42.206;25.326;2024-02-14T07:46:43;99437.00;;;13.80
21210;BMP180;10762;42.206;25.326;2024-02-14T07:49:09;99437.00;;;13.80
21210;BMP180;10762;42.206;25.326;2024-02-14T07:51:36;99428.00;;;13.90
21210;BMP180;10762;42.206;25.326;2024-02-14T07:54:05;99434.00;;;13.90
21210;BMP180;10762;42.206;25.326;2024-02-14T07:56:32;99434.00;;;13.90
21210;BMP180;10762;42.206;25.326;2024-02-14T07:58:58;99439.00;;;13.90
21210;BMP180;10762;42.206;25.326;2024-02-14T08:01:25;99438.00;;;13.90
21210;BMP180;10762;42.206;25.326;2024-02-14T08:03:51;99440.00;;;13.90
21210;BMP180;10762;42.206;25.326;2024-02-14T08:06:17;99441.00;;;14.00
21210;BMP180;10762;42.206;25.326;2024-02-14T08:08:43;99442.00;;;14.00
21210;BMP180;10762;42.206;25.326;2024-02-14T08:11:12;99447.00;;;14.00
21210;BMP180;10762;42.206;25.326;2024-02-14T08:13:38;99450.00;;;14.10
21210;BMP180;10762;42.206;25.326;2024-02-14T08:16:05;99446.00;;;14.10
21210;BMP180;10762;42.206;25.326;2024-02-14T08:18:32;99457.00;;;14.10
21210;BMP180;10762;42.206;25.326;2024-02-14T08:20:58;99458.00;;;14.10
21210;BMP180;10762;42.206;25.326;2024-02-14T08:23:24;99460.00;;;14.20
21210;BMP180;10762;42.206;25.326;2024-02-14T08:25:50;99461.00;;;14.30
21210;BMP180;10762;42.206;25.326;2024-02-14T08:28:16;99456.00;;;14.40
21210;BMP180;10762;42.206;25.326;2024-02-14T08:30:46;99460.00;;;14.40
21210;BMP180;10762;42.206;25.326;2024-02-14T08:33:13;99472.00;;;14.50
21210;BMP180;10762;42.206;25.326;2024-02-14T08:35:39;99468.00;;;14.50
21210;BMP180;10762;42.206;25.326;2024-02-14T08:38:05;99465.00;;;14.50
21210;BMP180;10762;42.206;25.326;2024-02-14T08:40:32;99481.00;;;14.50
21210;BMP180;10762;42.206;25.326;2024-02-14T08:42:58;99482.00;;;14.50
21210;BMP180;10762;42.206;25.326;2024-02-14T08:45:24;99477.00;;;14.50
21210;BMP180;10762;42.206;25.326;2024-02-14T08:47:51;99484.00;;;14.50
21210;BMP180;10762;42.206;25.326;2024-02-14T08:50:17;99477.00;;;14.50
21210;BMP180;10762;42.206;25.326;2024-02-14T08:52:43;99489.00;;;14.60
21210;BMP180;10762;42.206;25.326;2024-02-14T08:55:09;99485.00;;;14.60
21210;BMP180;10762;42.206;25.326;2024-02-14T08:57:40;99483.00;;;14.60
21210;BMP180;10762;42.206;25.326;2024-02-14T09:00:07;99492.00;;;14.60
21210;BMP180;10762;42.206;25.326;2024-02-14T09:02:33;99491.00;;;14.70
21210;BMP180;10762;42.206;25.326;2024-02-14T09:05:00;99498.00;;;14.70
21210;BMP180;10762;42.206;25.326;2024-02-14T09:07:27;99493.00;;;14.70
21210;BMP180;10762;42.206;25.326;2024-02-14T09:09:53;99500.00;;;14.70
21210;BMP180;10762;42.206;25.326;2024-02-14T09:12:19;99498.00;;;14.70
21210;BMP180;10762;42.206;25.326;2024-02-14T09:14:45;99497.00;;;14.70
21210;BMP180;10762;42.206;25.326;2024-02-14T09:17:11;99504.00;;;14.80
21210;BMP180;10762;42.206;25.326;2024-02-14T09:19:37;99502.00;;;14.80
21210;BMP180;10762;42.206;25.326;2024-02-14T09:22:04;99503.00;;;14.90
21210;BMP180;10762;42.206;25.326;2024-02-14T09:24:32;99511.00;;;14.90
21210;BMP180;10762;42.206;25.326;2024-02-14T09:26:58;99505.00;;;14.90
21210;BMP180;10762;42.206;25.326;2024-02-14T09:29:24;99508.00;;;14.90
21210;BMP180;10762;42.206;25.326;2024-02-14T09:31:51;99510.00;;;15.00
21210;BMP180;10762;42.206;25.326;2024-02-14T09:34:17;99508.00;;;15.00
21210;BMP180;10762;42.206;25.326;2024-02-14T09:36:47;99502.00;;;15.10
21210;BMP180;10762;42.206;25.326;2024-02-14T09:39:14;99500.00;;;15.20
21210;BMP180;10762;42.206;25.326;2024-02-14T09:41:44;99499.00;;;15.30
21210;BMP180;10762;42.206;25.326;2024-02-14T09:44:12;99501.00;;;15.40
21210;BMP180;10762;42.206;25.326;2024-02-14T09:46:39;99510.00;;;15.40
21210;BMP180;10762;42.206;25.326;2024-02-14T09:49:05;99496.00;;;15.40
21210;BMP180;10762;42.206;25.326;2024-02-14T09:51:32;99498.00;;;15.50
21210;BMP180;10762;42.206;25.326;2024-02-14T09:53:59;99499.00;;;15.60
21210;BMP180;10762;42.206;25.326;2024-02-14T09:56:25;99492.00;;;15.70
21210;BMP180;10762;42.206;25.326;2024-02-14T09:58:52;99485.00;;;15.70
21210;BMP180;10762;42.206;25.326;2024-02-14T10:01:22;99465.00;;;15.70
21210;BMP180;10762;42.206;25.326;2024-02-14T10:03:50;99486.00;;;15.80
21210;BMP180;10762;42.206;25.326;2024-02-14T10:06:17;99479.00;;;15.80
21210;BMP180;10762;42.206;25.326;2024-02-14T10:08:43;99486.00;;;15.80
21210;BMP180;10762;42.206;25.326;2024-02-14T10:11:09;99485.00;;;15.90
21210;BMP180;10762;42.206;25.326;2024-02-14T10:13:36;99483.00;;;15.80
21210;BMP180;10762;42.206;25.326;2024-02-14T10:16:02;99477.00;;;15.80
21210;BMP180;10762;42.206;25.326;2024-02-14T10:18:29;99485.00;;;15.70
21210;BMP180;10762;42.206;25.326;2024-02-14T10:20:57;99486.00;;;15.70
21210;BMP180;10762;42.206;25.326;2024-02-14T10:23:23;99489.00;;;15.70
21210;BMP180;10762;42.206;25.326;2024-02-14T10:25:55;99487.00;;;15.70
21210;BMP180;10762;42.206;25.326;2024-02-14T10:28:22;99479.00;;;15.70
21210;BMP180;10762;42.206;25.326;2024-02-14T10:30:48;99485.00;;;15.70
21210;BMP180;10762;42.206;25.326;2024-02-14T10:33:18;99491.00;;;15.70
21210;BMP180;10762;42.206;25.326;2024-02-14T10:35:47;99475.00;;;15.70
21210;BMP180;10762;42.206;25.326;2024-02-14T10:38:13;99491.00;;;15.60
21210;BMP180;10762;42.206;25.326;2024-02-14T10:40:39;99488.00;;;15.60
21210;BMP180;10762;42.206;25.326;2024-02-14T10:43:09;99494.00;;;15.50
21210;BMP180;10762;42.206;25.326;2024-02-14T10:45:38;99487.00;;;15.50
21210;BMP180;10762;42.206;25.326;2024-02-14T10:48:05;99485.00;;;15.50
21210;BMP180;10762;42.206;25.326;2024-02-14T10:50:33;99489.00;;;15.50
21210;BMP180;10762;42.206;25.326;2024-02-14T10:53:02;99484.00;;;15.50
21210;BMP180;10762;42.206;25.326;2024-02-14T10:55:29;99492.00;;;15.40
21210;BMP180;10762;42.206;25.326;2024-02-14T10:57:57;99496.00;;;15.40
21210;BMP180;10762;42.206;25.326;2024-02-14T11:00:23;99493.00;;;15.50
21210;BMP180;10762;42.206;25.326;2024-02-14T11:02:50;99495.00;;;15.60
21210;BMP180;10762;42.206;25.326;2024-02-14T11:05:18;99500.00;;;15.70
21210;BMP180;10762;42.206;25.326;2024-02-14T11:07:45;99498.00;;;15.90
21210;BMP180;10762;42.206;25.326;2024-02-14T11:10:16;99494.00;;;15.90
21210;BMP180;10762;42.206;25.326;2024-02-14T11:12:42;99482.00;;;16.00
21210;BMP180;10762;42.206;25.326;2024-02-14T11:15:12;99484.00;;;16.00
21210;BMP180;10762;42.206;25.326;2024-02-14T11:17:41;99481.00;;;16.10
21210;BMP180;10762;42.206;25.326;2024-02-14T11:20:18;99480.00;;;16.10
21210;BMP180;10762;42.206;25.326;2024-02-14T11:22:57;99487.00;;;16.20
21210;BMP180;10762;42.206;25.326;2024-02-14T11:25:30;99481.00;;;16.20
21210;BMP180;10762;42.206;25.326;2024-02-14T11:27:58;99471.00;;;16.40
21210;BMP180;10762;42.206;25.326;2024-02-14T11:30:31;99476.00;;;16.40
21210;BMP180;10762;42.206;25.326;2024-02-14T11:33:10;99481.00;;;16.40
21210;BMP180;10762;42.206;25.326;2024-02-14T11:35:40;99472.00;;;16.40
21210;BMP180;10762;42.206;25.326;2024-02-14T11:38:06;99467.00;;;16.50
21210;BMP180;10762;42.206;25.326;2024-02-14T11:40:33;99468.00;;;16.50
21210;BMP180;10762;42.206;25.326;2024-02-14T11:42:59;99475.00;;;16.60
21210;BMP180;10762;42.206;25.326;2024-02-14T11:45:25;99464.00;;;16.60
21210;BMP180;10762;42.206;25.326;2024-02-14T11:47:51;99478.00;;;16.70
21210;BMP180;10762;42.206;25.326;2024-02-14T11:50:17;99472.00;;;16.70
21210;BMP180;10762;42.206;25.326;2024-02-14T11:52:44;99460.00;;;16.70
21210;BMP180;10762;42.206;25.326;2024-02-14T11:55:10;99470.00;;;16.80
21210;BMP180;10762;42.206;25.326;2024-02-14T11:57:39;99467.00;;;16.80
21210;BMP180;10762;42.206;25.326;2024-02-14T12:00:05;99468.00;;;16.80
21210;BMP180;10762;42.206;25.326;2024-02-14T12:02:31;99471.00;;;16.80
21210;BMP180;10762;42.206;25.326;2024-02-14T12:04:57;99475.00;;;16.80
21210;BMP180;10762;42.206;25.326;2024-02-14T12:07:24;99475.00;;;16.70
21210;BMP180;10762;42.206;25.326;2024-02-14T12:09:50;99475.00;;;16.70
21210;BMP180;10762;42.206;25.326;2024-02-14T12:12:17;99465.00;;;16.70
21210;BMP180;10762;42.206;25.326;2024-02-14T12:14:43;99466.00;;;16.60
21210;BMP180;10762;42.206;25.326;2024-02-14T12:17:11;99466.00;;;16.60
21210;BMP180;10762;42.206;25.326;2024-02-14T12:19:37;99466.00;;;16.60
21210;BMP180;10762;42.206;25.326;2024-02-14T12:22:08;99469.00;;;16.60
21210;BMP180;10762;42.206;25.326;2024-02-14T12:24:37;99473.00;;;16.70
21210;BMP180;10762;42.206;25.326;2024-02-14T12:27:04;99451.00;;;16.70
21210;BMP180;10762;42.206;25.326;2024-02-14T12:29:30;99462.00;;;16.70
21210;BMP180;10762;42.206;25.326;2024-02-14T12:32:03;99469.00;;;16.60
21210;BMP180;10762;42.206;25.326;2024-02-14T12:34:29;99465.00;;;16.50
21210;BMP180;10762;42.206;25.326;2024-02-14T12:36:55;99469.00;;;16.50
21210;BMP180;10762;42.206;25.326;2024-02-14T12:39:21;99465.00;;;16.50
21210;BMP180;10762;42.206;25.326;2024-02-14T12:41:47;99459.00;;;16.50
21210;BMP180;10762;42.206;25.326;2024-02-14T12:44:13;99468.00;;;16.50
21210;BMP180;10762;42.206;25.326;2024-02-14T12:46:39;99466.00;;;16.60
21210;BMP180;10762;42.206;25.326;2024-02-14T12:49:05;99461.00;;;16.60
21210;BMP180;10762;42.206;25.326;2024-02-14T12:51:32;99462.00;;;16.60
21210;BMP180;10762;42.206;25.326;2024-02-14T12:53:58;99471.00;;;16.60
21210;BMP180;10762;42.206;25.326;2024-02-14T12:56:24;99473.00;;;16.60
21210;BMP180;10762;42.206;25.326;2024-02-14T12:58:51;99460.00;;;16.60
21210;BMP180;10762;42.206;25.326;2024-02-14T13:01:17;99464.00;;;16.70
21210;BMP180;10762;42.206;25.326;2024-02-14T13:03:43;99472.00;;;16.70
21210;BMP180;10762;42.206;25.326;2024-02-14T13:06:10;99467.00;;;16.70
21210;BMP180;10762;42.206;25.326;2024-02-14T13:08:37;99465.00;;;16.70
21210;BMP180;10762;42.206;25.326;2024-02-14T13:11:04;99469.00;;;16.80
21210;BMP180;10762;42.206;25.326;2024-02-14T13:13:30;99471.00;;;16.70
21210;BMP180;10762;42.206;25.326;2024-02-14T13:15:56;99467.00;;;16.80
21210;BMP180;10762;42.206;25.326;2024-02-14T13:18:22;99470.00;;;16.80
21210;BMP180;10762;42.206;25.326;2024-02-14T13:20:48;99478.00;;;16.80
21210;BMP180;10762;42.206;25.326;2024-02-14T13:23:22;99480.00;;;16.80
21210;BMP180;10762;42.206;25.326;2024-02-14T13:25:49;99476.00;;;16.80
21210;BMP180;10762;42.206;25.326;2024-02-14T13:28:15;99477.00;;;16.80
21210;BMP180;10762;42.206;25.326;2024-02-14T13:30:41;99470.00;;;16.90
21210;BMP180;10762;42.206;25.326;2024-02-14T13:33:07;99478.00;;;16.90
21210;BMP180;10762;42.206;25.326;2024-02-14T13:35:35;99478.00;;;16.80
21210;BMP180;10762;42.206;25.326;2024-02-14T13:38:04;99477.00;;;16.80
21210;BMP180;10762;42.206;25.326;2024-02-14T13:40:31;99484.00;;;16.70
21210;BMP180;10762;42.206;25.326;2024-02-14T13:42:57;99483.00;;;16.70
21210;BMP180;10762;42.206;25.326;2024-02-14T13:45:24;99487.00;;;16.70
21210;BMP180;10762;42.206;25.326;2024-02-14T13:47:50;99479.00;;;16.60
21210;BMP180;10762;42.206;25.326;2024-02-14T13:50:18;99480.00;;;16.50
21210;BMP180;10762;42.206;25.326;2024-02-14T13:52:44;99495.00;;;16.40